createdAt,value
2023-02-14T00:00:55.631Z,18.54
2023-02-14T00:03:21.337Z,18.56
2023-02-14T00:05:47.000Z,18.55
2023-02-14T00:08:12.654Z,18.56
2023-02-14T00:10:38.375Z,18.54
2023-02-14T00:13:04.212Z,18.54
2023-02-14T00:15:29.858Z,18.53
2023-02-14T00:17:58.658Z,18.53
2023-02-14T00:20:25.624Z,18.54
2023-02-14T00:22:51.772Z,18.54
2023-02-14T00:25:17.618Z,18.54
2023-02-14T00:27:43.357Z,18.53
2023-02-14T00:30:10.672Z,18.53
2023-02-14T00:32:38.730Z,18.54
2023-02-14T00:35:05.524Z,18.53
2023-02-14T00:37:31.648Z,18.54
2023-02-14T00:39:57.287Z,18.54
2023-02-14T00:42:22.927Z,18.55
2023-02-14T00:44:48.564Z,18.53
2023-02-14T00:47:14.284Z,18.53
2023-02-14T00:49:39.941Z,18.52
2023-02-14T00:52:05.639Z,18.53
2023-02-14T00:54:31.355Z,18.53
2023-02-14T00:56:56.991Z,18.52
2023-02-14T00:59:22.741Z,18.52
2023-02-14T01:01:48.461Z,18.54
2023-02-14T01:04:14.116Z,18.53
2023-02-14T01:06:39.770Z,18.52
2023-02-14T01:09:05.455Z,18.52
2023-02-14T01:11:31.098Z,18.53
2023-02-14T01:13:57.321Z,18.53
2023-02-14T01:16:25.026Z,18.53
2023-02-14T01:18:50.856Z,18.51
2023-02-14T01:21:22.684Z,18.52
2023-02-14T01:23:50.056Z,18.50
2023-02-14T01:26:16.442Z,18.52
2023-02-14T01:28:42.370Z,18.51
2023-02-14T01:31:10.689Z,18.52
2023-02-14T01:33:37.099Z,18.51
2023-02-14T01:36:03.064Z,18.51
2023-02-14T01:38:28.912Z,18.51
2023-02-14T01:40:54.620Z,18.51
2023-02-14T01:43:20.254Z,18.50
2023-02-14T01:45:45.963Z,18.51
2023-02-14T01:48:11.848Z,18.51
2023-02-14T01:50:40.704Z,18.51
2023-02-14T01:53:11.623Z,18.51
2023-02-14T01:55:41.888Z,18.51
2023-02-14T01:58:10.968Z,18.51
2023-02-14T02:00:58.186Z,18.50
2023-02-14T02:03:32.176Z,18.50
2023-02-14T02:06:06.306Z,18.50
2023-02-14T02:08:35.276Z,18.50
2023-02-14T02:11:01.247Z,18.50
2023-02-14T02:13:27.104Z,18.50
2023-02-14T02:19:10.345Z,18.49
2023-02-14T02:22:09.542Z,18.49
2023-02-14T02:25:03.870Z,18.50
2023-02-14T02:27:58.252Z,18.49
2023-02-14T02:33:39.233Z,18.53
2023-02-14T02:39:23.886Z,18.49
2023-02-14T02:42:20.782Z,18.50
2023-02-14T02:45:19.465Z,18.50
2023-02-14T02:48:08.697Z,18.50
2023-02-14T02:51:01.312Z,18.50
2023-02-14T02:53:40.632Z,18.49
2023-02-14T02:56:33.689Z,18.48
2023-02-14T02:59:05.764Z,18.49
2023-02-14T03:01:35.384Z,18.48
2023-02-14T03:04:24.400Z,18.48
2023-02-14T03:06:50.876Z,18.49
2023-02-14T03:14:49.641Z,18.48
2023-02-14T03:17:24.705Z,18.47
2023-02-14T03:20:14.977Z,18.48
2023-02-14T03:23:03.533Z,18.47
2023-02-14T03:25:42.902Z,18.47
2023-02-14T03:28:31.890Z,18.47
2023-02-14T03:31:06.722Z,18.47
2023-02-14T03:33:38.394Z,18.48
2023-02-14T03:36:26.367Z,18.48
2023-02-14T03:39:13.401Z,18.47
2023-02-14T03:41:45.745Z,18.46
2023-02-14T03:44:12.382Z,18.47
2023-02-14T03:46:43.980Z,18.47
2023-02-14T03:49:12.667Z,18.46
2023-02-14T03:51:38.690Z,18.48
2023-02-14T03:54:06.999Z,18.48
2023-02-14T03:56:39.284Z,18.48
2023-02-14T03:59:09.465Z,18.47
2023-02-14T04:01:38.218Z,18.47
2023-02-14T04:04:05.013Z,18.47
2023-02-14T04:06:30.662Z,18.46
2023-02-14T04:08:56.294Z,18.46
2023-02-14T04:11:24.074Z,18.46
2023-02-14T04:13:50.186Z,18.46
2023-02-14T04:16:15.843Z,18.46
2023-02-14T04:19:01.425Z,18.47
2023-02-14T04:21:27.101Z,18.45
2023-02-14T04:23:52.737Z,18.46
2023-02-14T04:26:18.386Z,18.46
2023-02-14T04:28:44.109Z,18.46
2023-02-14T04:31:10.688Z,18.45
2023-02-14T04:33:36.777Z,18.46
2023-02-14T04:36:02.509Z,18.46
2023-02-14T04:38:28.163Z,18.45
2023-02-14T04:40:53.847Z,18.45
2023-02-14T04:43:19.498Z,18.45
2023-02-14T04:45:46.062Z,18.43
2023-02-14T04:48:11.724Z,18.43
2023-02-14T04:50:37.360Z,18.45
2023-02-14T04:53:03.031Z,18.44
2023-02-14T04:55:28.689Z,18.44
2023-02-14T04:57:54.348Z,18.44
2023-02-14T05:00:20.231Z,18.44
2023-02-14T05:02:45.905Z,18.43
2023-02-14T05:05:11.552Z,18.44
2023-02-14T05:07:37.221Z,18.43
2023-02-14T05:10:04.860Z,18.44
2023-02-14T05:12:30.493Z,18.44
2023-02-14T05:14:56.794Z,18.43
2023-02-14T05:17:22.800Z,18.45
2023-02-14T05:19:48.467Z,18.44
2023-02-14T05:22:14.179Z,18.44
2023-02-14T05:24:39.821Z,18.43
2023-02-14T05:27:06.692Z,18.43
2023-02-14T05:29:32.354Z,18.43
2023-02-14T05:31:58.040Z,18.43
2023-02-14T05:34:23.880Z,18.44
2023-02-14T05:36:49.512Z,18.43
2023-02-14T05:39:15.169Z,18.43
2023-02-14T05:41:40.955Z,18.43
2023-02-14T05:44:06.612Z,18.43
2023-02-14T05:46:32.245Z,18.43
2023-02-14T05:48:58.241Z,18.44
2023-02-14T05:51:23.898Z,18.42
2023-02-14T05:53:49.539Z,18.43
2023-02-14T05:56:15.446Z,18.44
2023-02-14T05:58:41.082Z,18.43
2023-02-14T06:01:06.734Z,18.42
2023-02-14T06:03:32.376Z,18.44
2023-02-14T06:05:58.018Z,18.43
2023-02-14T06:08:23.654Z,18.43
2023-02-14T06:10:49.343Z,18.43
2023-02-14T06:13:15.117Z,18.43
2023-02-14T06:15:40.760Z,18.43
2023-02-14T06:18:06.445Z,18.42
2023-02-14T06:20:32.101Z,18.42
2023-02-14T06:22:57.783Z,18.42
2023-02-14T06:25:24.589Z,18.43
2023-02-14T06:27:50.877Z,18.42
2023-02-14T06:30:17.490Z,18.43
2023-02-14T06:32:43.304Z,18.42
2023-02-14T06:35:09.294Z,18.42
2023-02-14T06:37:34.962Z,18.41
2023-02-14T06:40:01.085Z,18.41
2023-02-14T06:42:26.731Z,18.41
2023-02-14T06:44:52.391Z,18.41
2023-02-14T06:47:18.044Z,18.42
2023-02-14T06:49:43.701Z,18.41
2023-02-14T06:52:09.445Z,18.47
2023-02-14T06:54:35.111Z,18.46
2023-02-14T06:57:00.755Z,18.55
2023-02-14T06:59:26.534Z,18.51
2023-02-14T07:01:52.804Z,18.48
2023-02-14T07:04:18.494Z,18.46
2023-02-14T07:06:45.317Z,18.45
2023-02-14T07:09:11.230Z,18.45
2023-02-14T07:11:36.872Z,18.44
2023-02-14T07:14:02.553Z,18.45
2023-02-14T07:16:28.301Z,18.45
2023-02-14T07:18:53.940Z,18.46
2023-02-14T07:21:19.634Z,18.47
2023-02-14T07:23:46.941Z,18.47
2023-02-14T07:26:17.168Z,18.47
2023-02-14T07:28:45.233Z,18.47
2023-02-14T07:31:11.460Z,18.48
2023-02-14T07:33:37.653Z,18.48
2023-02-14T07:36:04.857Z,18.47
2023-02-14T07:38:30.523Z,18.47
2023-02-14T07:40:56.179Z,18.48
2023-02-14T07:43:21.810Z,18.48
2023-02-14T07:45:48.020Z,18.49
2023-02-14T07:48:13.656Z,18.49
2023-02-14T07:50:39.302Z,18.49
2023-02-14T07:53:04.948Z,18.50
2023-02-14T07:55:30.634Z,18.50
2023-02-14T07:57:56.284Z,18.51
2023-02-14T08:00:22.169Z,18.50
2023-02-14T08:02:48.600Z,18.51
2023-02-14T08:05:14.765Z,18.51
2023-02-14T08:07:41.260Z,18.51
2023-02-14T08:10:07.083Z,18.51
2023-02-14T08:12:52.629Z,18.62
2023-02-14T08:15:38.185Z,18.58
2023-02-14T08:18:03.825Z,18.55
2023-02-14T08:20:29.471Z,18.63
2023-02-14T08:22:55.399Z,18.64
2023-02-14T08:25:21.068Z,18.71
2023-02-14T08:27:46.718Z,18.68
2023-02-14T08:30:12.808Z,18.65
2023-02-14T08:32:38.617Z,18.60
2023-02-14T08:35:04.583Z,18.60
2023-02-14T08:37:30.229Z,18.59
2023-02-14T08:39:55.909Z,18.60
2023-02-14T08:42:21.562Z,18.59
2023-02-14T08:44:47.202Z,18.60
2023-02-14T08:47:12.860Z,18.60
2023-02-14T08:49:38.706Z,18.60
2023-02-14T08:52:04.481Z,18.66
2023-02-14T08:54:30.150Z,18.67
2023-02-14T08:56:56.117Z,18.74
2023-02-14T08:59:21.842Z,18.78
2023-02-14T09:01:47.503Z,18.71
2023-02-14T09:04:13.320Z,18.69
2023-02-14T09:06:39.223Z,18.68
2023-02-14T09:09:05.903Z,18.66
2023-02-14T09:11:32.083Z,18.66
2023-02-14T09:13:57.757Z,18.66
2023-02-14T09:16:24.374Z,18.66
2023-02-14T09:18:51.866Z,18.67
2023-02-14T09:21:23.390Z,18.67
2023-02-14T09:23:49.189Z,18.67
2023-02-14T09:26:16.102Z,18.76
2023-02-14T09:28:41.842Z,18.75
2023-02-14T09:31:09.851Z,18.74
2023-02-14T09:33:35.706Z,18.73
2023-02-14T09:36:21.371Z,18.72
2023-02-14T09:38:47.046Z,18.70
2023-02-14T09:41:33.093Z,18.69
2023-02-14T09:44:10.273Z,18.70
2023-02-14T09:46:42.352Z,18.70
2023-02-14T09:49:13.737Z,18.71
2023-02-14T09:51:44.376Z,18.71
2023-02-14T09:54:12.957Z,18.71
2023-02-14T09:57:02.272Z,18.72
2023-02-14T09:59:37.003Z,18.86
2023-02-14T10:02:21.900Z,18.82
2023-02-14T10:05:02.190Z,18.78
2023-02-14T10:07:37.201Z,18.74
2023-02-14T10:10:15.678Z,18.75
2023-02-14T10:12:46.930Z,18.74
2023-02-14T10:15:20.490Z,18.74
2023-02-14T10:17:51.889Z,18.75
2023-02-14T10:20:38.601Z,18.75
2023-02-14T10:23:37.648Z,18.75
2023-02-14T10:26:06.788Z,18.75
2023-02-14T10:28:35.064Z,18.75
2023-02-14T10:31:31.797Z,18.87
2023-02-14T10:34:14.406Z,18.83
2023-02-14T10:40:17.683Z,18.80
2023-02-14T10:43:23.168Z,18.79
2023-02-14T10:45:58.762Z,18.81
2023-02-14T10:48:51.310Z,18.80
2023-02-14T10:51:31.231Z,18.81
2023-02-14T10:54:16.028Z,18.86
2023-02-14T10:56:46.423Z,18.85
2023-02-14T10:59:32.096Z,18.83
2023-02-14T11:01:58.607Z,18.83
2023-02-14T11:04:24.671Z,18.82
2023-02-14T11:06:50.961Z,18.81
2023-02-14T11:09:17.155Z,18.81
2023-02-14T11:11:46.212Z,18.80
2023-02-14T11:14:27.365Z,18.82
2023-02-14T11:16:53.912Z,18.82
2023-02-14T11:19:30.049Z,18.81
2023-02-14T11:21:57.594Z,18.82
2023-02-14T11:24:27.476Z,18.82
2023-02-14T11:26:56.009Z,18.83
2023-02-14T11:29:41.468Z,18.83
2023-02-14T11:32:09.941Z,18.82
2023-02-14T11:34:36.421Z,18.83
2023-02-14T11:37:03.531Z,18.82
2023-02-14T11:39:31.791Z,18.83
2023-02-14T11:42:00.719Z,18.84
2023-02-14T11:44:28.130Z,18.84
2023-02-14T11:46:55.510Z,18.84
2023-02-14T11:49:26.740Z,18.85
2023-02-14T11:51:52.410Z,18.84
2023-02-14T11:54:28.208Z,18.85
2023-02-14T11:57:00.141Z,18.85
2023-02-14T11:59:30.431Z,18.83
2023-02-14T12:01:57.826Z,18.85
2023-02-14T12:04:35.266Z,18.81
2023-02-14T12:07:33.172Z,18.84
2023-02-14T12:13:19.848Z,18.84
2023-02-14T12:18:36.960Z,18.84
2023-02-14T12:21:39.457Z,18.83
2023-02-14T12:24:22.224Z,18.84
2023-02-14T12:26:55.135Z,18.85
2023-02-14T12:29:39.358Z,18.85
2023-02-14T12:32:22.851Z,18.45
2023-02-14T12:34:48.997Z,18.47
2023-02-14T12:37:36.984Z,18.68
2023-02-14T12:40:11.463Z,18.75
2023-02-14T12:43:11.751Z,18.77
2023-02-14T12:46:03.006Z,18.80
2023-02-14T12:48:46.350Z,18.81
2023-02-14T12:51:34.798Z,18.82
2023-02-14T12:54:30.259Z,18.84
2023-02-14T12:57:21.139Z,18.83
2023-02-14T13:00:05.482Z,18.85
2023-02-14T13:03:01.807Z,18.84
2023-02-14T13:06:07.790Z,18.85
2023-02-14T13:09:02.852Z,18.86
2023-02-14T13:11:52.203Z,18.86
2023-02-14T13:14:31.433Z,18.86
2023-02-14T13:17:04.713Z,18.86
2023-02-14T13:19:41.254Z,18.86
2023-02-14T13:22:11.867Z,18.87
2023-02-14T13:24:40.865Z,18.88
2023-02-14T13:27:08.404Z,18.91
2023-02-14T13:29:42.693Z,18.90
2023-02-14T13:32:11.191Z,18.90
2023-02-14T13:34:41.047Z,18.88
2023-02-14T13:37:10.059Z,18.88
2023-02-14T13:39:38.849Z,18.88
2023-02-14T13:42:05.357Z,18.88
2023-02-14T13:47:18.268Z,18.89
2023-02-14T13:49:48.233Z,18.89
2023-02-14T13:52:48.787Z,18.90
2023-02-14T13:55:20.914Z,18.89
2023-02-14T13:58:00.502Z,18.90
2023-02-14T14:00:43.791Z,18.91
2023-02-14T14:03:13.844Z,18.90
2023-02-14T14:08:26.426Z,18.91
2023-02-14T14:10:56.080Z,18.54
2023-02-14T14:13:46.019Z,18.81
2023-02-14T14:16:26.940Z,18.86
2023-02-14T14:19:18.454Z,18.89
2023-02-14T14:22:00.043Z,18.90
2023-02-14T14:24:29.478Z,18.90
2023-02-14T14:27:04.337Z,18.91
2023-02-14T14:29:37.124Z,18.90
2023-02-14T14:32:08.302Z,18.91
2023-02-14T14:34:33.973Z,18.88
2023-02-14T14:37:03.296Z,18.91
2023-02-14T14:39:31.542Z,18.93
2023-02-14T14:42:07.136Z,18.92
2023-02-14T14:44:33.901Z,18.93
2023-02-14T14:46:59.676Z,18.93
2023-02-14T14:49:25.542Z,18.93
2023-02-14T14:51:51.221Z,18.93
2023-02-14T14:54:19.574Z,18.93
2023-02-14T14:56:49.089Z,18.93
2023-02-14T14:59:17.332Z,18.84
2023-02-14T15:01:43.931Z,18.39
2023-02-14T15:04:19.899Z,18.13
2023-02-14T15:06:46.915Z,18.06
2023-02-14T15:09:16.097Z,17.94
2023-02-14T15:12:02.589Z,17.91
2023-02-14T15:14:30.223Z,17.87
2023-02-14T15:17:00.260Z,18.04
2023-02-14T15:19:33.844Z,18.29
2023-02-14T15:22:01.942Z,18.51
2023-02-14T15:24:29.617Z,18.61
2023-02-14T15:26:55.654Z,18.66
2023-02-14T15:29:25.617Z,18.69
2023-02-14T15:31:52.043Z,18.72
2023-02-14T15:34:21.446Z,18.74
2023-02-14T15:36:51.298Z,18.77
2023-02-14T15:39:18.032Z,18.77
2023-02-14T15:41:44.037Z,18.79
2023-02-14T15:44:21.952Z,18.79
2023-02-14T15:46:47.911Z,18.81
2023-02-14T15:49:18.079Z,18.81
2023-02-14T15:51:43.909Z,18.81
2023-02-14T15:54:32.532Z,18.83
2023-02-14T15:56:58.937Z,18.82
2023-02-14T15:59:28.926Z,18.83
2023-02-14T16:01:58.245Z,18.83
2023-02-14T16:04:25.811Z,18.83
2023-02-14T16:07:27.201Z,18.85
2023-02-14T16:10:28.589Z,18.85
2023-02-14T16:13:00.091Z,18.86
2023-02-14T16:15:28.153Z,18.85
2023-02-14T16:17:53.894Z,18.87
2023-02-14T16:20:29.935Z,18.88
2023-02-14T16:23:18.114Z,18.87
2023-02-14T16:25:43.915Z,18.87
2023-02-14T16:28:09.541Z,18.87
2023-02-14T16:30:36.530Z,18.86
2023-02-14T16:33:02.186Z,18.86
2023-02-14T16:35:28.668Z,18.85
2023-02-14T16:37:54.484Z,18.87
2023-02-14T16:40:24.753Z,18.85
2023-02-14T16:42:50.388Z,18.85
2023-02-14T16:45:17.668Z,18.86
2023-02-14T16:47:45.873Z,18.86
2023-02-14T16:50:11.596Z,18.86
2023-02-14T16:52:37.732Z,18.84
2023-02-14T16:55:04.039Z,18.86
2023-02-14T16:57:33.499Z,18.86
2023-02-14T16:59:59.663Z,18.85
2023-02-14T17:02:27.377Z,18.84
2023-02-14T17:04:53.864Z,18.85
2023-02-14T17:07:20.186Z,18.86
2023-02-14T17:10:00.581Z,18.85
2023-02-14T17:12:30.626Z,18.84
2023-02-14T17:14:58.081Z,18.84
2023-02-14T17:17:24.279Z,18.84
2023-02-14T17:19:52.663Z,18.84
2023-02-14T17:22:18.551Z,18.84
2023-02-14T17:24:44.195Z,18.84
2023-02-14T17:27:09.849Z,18.84
2023-02-14T17:29:35.520Z,18.83
2023-02-14T17:32:01.435Z,18.83
2023-02-14T17:34:31.532Z,18.83
2023-02-14T17:36:57.183Z,18.83
2023-02-14T17:39:22.819Z,18.83
2023-02-14T17:41:48.501Z,18.81
2023-02-14T17:44:14.920Z,18.82
2023-02-14T17:46:40.599Z,18.82
2023-02-14T17:49:07.509Z,18.83
2023-02-14T17:51:33.172Z,18.82
2023-02-14T17:53:59.106Z,18.82
2023-02-14T17:56:25.204Z,18.82
2023-02-14T17:58:52.326Z,18.82
2023-02-14T18:01:20.286Z,18.82
2023-02-14T18:03:46.009Z,18.81
2023-02-14T18:06:13.073Z,18.80
2023-02-14T18:08:41.172Z,18.80
2023-02-14T18:11:09.526Z,18.80
2023-02-14T18:13:35.184Z,18.79
2023-02-14T18:16:02.476Z,18.79
2023-02-14T18:18:28.170Z,18.79
2023-02-14T18:20:55.235Z,18.79
2023-02-14T18:23:21.195Z,18.80
2023-02-14T18:25:54.319Z,18.79
2023-02-14T18:28:21.896Z,18.79
2023-02-14T18:30:47.587Z,18.79
2023-02-14T18:33:14.108Z,18.77
2023-02-14T18:35:39.756Z,18.78
2023-02-14T18:38:06.250Z,18.79
2023-02-14T18:40:31.914Z,18.77
2023-02-14T18:42:57.569Z,18.78
2023-02-14T18:45:23.722Z,18.78
2023-02-14T18:47:49.731Z,18.78
2023-02-14T18:50:15.532Z,18.77
2023-02-14T18:52:41.305Z,18.77
2023-02-14T18:55:07.060Z,18.78
2023-02-14T18:57:33.535Z,18.77
2023-02-14T18:59:59.671Z,18.77
2023-02-14T19:02:25.792Z,18.77
2023-02-14T19:04:51.683Z,18.77
2023-02-14T19:07:17.429Z,18.75
2023-02-14T19:09:43.242Z,18.77
2023-02-14T19:12:09.788Z,18.76
2023-02-14T19:14:35.825Z,18.78
2023-02-14T19:17:02.823Z,18.76
2023-02-14T19:19:28.473Z,18.76
2023-02-14T19:21:57.495Z,18.76
2023-02-14T19:24:24.807Z,18.75
2023-02-14T19:26:51.212Z,18.76
2023-02-14T19:29:19.334Z,18.76
2023-02-14T19:31:48.254Z,18.76
2023-02-14T19:34:16.466Z,18.75
2023-02-14T19:36:42.103Z,18.74
2023-02-14T19:39:07.755Z,18.76
2023-02-14T19:41:33.793Z,18.76
2023-02-14T19:44:02.055Z,18.74
2023-02-14T19:46:28.155Z,18.74
2023-02-14T19:48:55.456Z,18.75
2023-02-14T19:51:30.477Z,18.74
2023-02-14T19:53:58.264Z,18.75
2023-02-14T19:56:26.239Z,18.74
2023-02-14T19:58:52.292Z,18.73
2023-02-14T20:01:28.681Z,18.74
2023-02-14T20:03:54.358Z,18.74
2023-02-14T20:06:21.178Z,18.74
2023-02-14T20:08:47.729Z,18.74
2023-02-14T20:11:35.459Z,18.73
2023-02-14T20:14:02.505Z,18.73
2023-02-14T20:16:30.139Z,18.73
2023-02-14T20:18:56.121Z,18.73
2023-02-14T20:21:27.112Z,18.74
2023-02-14T20:24:01.659Z,18.74
2023-02-14T20:26:28.515Z,18.72
2023-02-14T20:28:54.594Z,18.72
2023-02-14T20:31:20.777Z,18.73
2023-02-14T20:33:47.182Z,18.73
2023-02-14T20:36:13.282Z,18.72
2023-02-14T20:38:38.940Z,18.72
2023-02-14T20:41:06.040Z,18.73
2023-02-14T20:43:31.780Z,18.72
2023-02-14T20:45:59.446Z,18.71
2023-02-14T20:48:25.250Z,18.72
2023-02-14T20:50:50.912Z,18.72
2023-02-14T20:53:16.552Z,18.72
2023-02-14T20:55:43.836Z,18.70
2023-02-14T20:58:10.130Z,18.71
2023-02-14T21:00:35.860Z,18.71
2023-02-14T21:03:01.523Z,18.71
2023-02-14T21:05:27.950Z,18.70
2023-02-14T21:07:53.663Z,18.70
2023-02-14T21:10:19.363Z,18.71
2023-02-14T21:12:45.001Z,18.69
2023-02-14T21:15:10.938Z,18.70
2023-02-14T21:17:37.063Z,18.72
2023-02-14T21:20:04.136Z,18.70
2023-02-14T21:22:29.790Z,18.69
2023-02-14T21:24:55.460Z,18.70
2023-02-14T21:27:21.114Z,18.69
2023-02-14T21:29:46.768Z,18.70
2023-02-14T21:32:12.578Z,18.68
2023-02-14T21:34:38.575Z,18.68
2023-02-14T21:37:04.253Z,18.67
2023-02-14T21:39:30.244Z,18.69
2023-02-14T21:41:56.429Z,18.69
2023-02-14T21:44:42.263Z,18.68
2023-02-14T21:47:07.921Z,18.67
2023-02-14T21:49:53.456Z,18.69
2023-02-14T21:52:19.161Z,18.67
2023-02-14T21:54:44.804Z,18.67
2023-02-14T21:57:10.447Z,18.67
2023-02-14T21:59:36.100Z,18.67
2023-02-14T22:02:01.731Z,18.67
2023-02-14T22:04:27.385Z,18.68
2023-02-14T22:06:53.011Z,18.66
2023-02-14T22:09:18.657Z,18.68
2023-02-14T22:11:46.730Z,18.67
2023-02-14T22:14:14.660Z,18.67
2023-02-14T22:16:40.435Z,18.66
2023-02-14T22:19:06.650Z,18.66
2023-02-14T22:21:32.834Z,18.65
2023-02-14T22:23:59.361Z,18.66
2023-02-14T22:26:28.951Z,18.66
2023-02-14T22:28:56.462Z,18.65
2023-02-14T22:31:23.768Z,18.66
2023-02-14T22:33:49.829Z,18.65
2023-02-14T22:36:15.521Z,18.65
2023-02-14T22:38:41.262Z,18.64
2023-02-14T22:41:08.956Z,18.65
2023-02-14T22:43:35.378Z,18.65
2023-02-14T22:46:03.459Z,18.65
2023-02-14T22:48:30.875Z,18.64
2023-02-14T22:50:56.521Z,18.63
2023-02-14T22:53:22.166Z,18.64
2023-02-14T22:55:47.828Z,18.64
2023-02-14T22:58:13.697Z,18.64
2023-02-14T23:03:30.138Z,18.63
2023-02-14T23:05:56.626Z,18.63
2023-02-14T23:08:22.513Z,18.63
2023-02-14T23:10:48.158Z,18.64
2023-02-14T23:13:33.681Z,18.62
2023-02-14T23:16:19.290Z,18.62
2023-02-14T23:19:04.950Z,18.61
2023-02-14T23:21:50.494Z,18.62
2023-02-14T23:24:16.146Z,18.62
2023-02-14T23:26:41.798Z,18.61
2023-02-14T23:29:07.460Z,18.62
2023-02-14T23:31:33.267Z,18.61
2023-02-14T23:33:58.937Z,18.61
2023-02-14T23:36:24.618Z,18.62
2023-02-14T23:38:50.325Z,18.61
2023-02-14T23:41:35.910Z,18.61
2023-02-14T23:44:01.558Z,18.61
2023-02-14T23:46:27.224Z,18.61
2023-02-14T23:48:52.861Z,18.61
2023-02-14T23:51:18.903Z,18.61
2023-02-14T23:53:44.537Z,18.60
2023-02-14T23:56:10.199Z,18.60
2023-02-14T23:58:35.847Z,18.61
